SPJL/JUL METAR and TAF weather

Enter ICAO airport designator
Station Type Date Time Source
SPJL METAR 2021/05/13 17:00 UTC NOAA

SPJL 131700Z 33004KT 9999 SCT020 15/M01 Q1036 RMK PP000


Station Type Date Time Source
SPJL Decoded METAR 2021/05/13 17:00 UTC NOAA

Juliaca, Peru (SPJL) 15-29S 070-09W 3827M
May 13, 2021 - 01:00 PM EDT / 2021.05.13 1700 UTC
Wind: from the NNW (330 degrees) at 5 MPH (4 KT):0
Visibility: greater than 7 mile(s):0
Sky conditions: partly cloudy
Temperature: 59 F (15 C)
Dew Point: 30 F (-1 C)
Relative Humidity: 33%
Pressure (altimeter): 30.59 in. Hg (1036 hPa)
ob: SPJL 131700Z 33004KT 9999 SCT020 15/M01 Q1036 RMK PP000
cycle: 17

Station Type Date Time Source
SPJL TAF 2021/05/13 18:33 UTC NOAA

TAF SPJL 131704Z 1318/1418 30007KT 9999 SCT020 TX17/1319Z TN01/1410Z
FM140200 35004KT CAVOK
FM141600 28006KT 9999 SCT020

Example: see airport list